Time;durP1;ratioP1;P1;durP2;ratioP2;P2;SDS_P1;SDS_P2;PMS_P1;PMS_P2;Temp;Humidity;BMP_temperature;BMP_pressure;BME280_temperature;BME280_humidity;BME280_pressure;Samples;Min_cycle;Max_cycle;Signal;HPM_P1;HPM_P2
2022/10/20 00:01:49;;;;;;;21.80;13.25;;;;;;;14.57;51.68;99667.28;5096059;28;20045;-84
2022/10/20 00:04:14;;;;;;;17.33;14.02;;;;;;;14.60;51.53;99662.94;5114186;28;20076;-84
2022/10/20 00:06:40;;;;;;;20.13;13.77;;;;;;;14.59;51.90;99659.31;5114241;28;20663;-83
2022/10/20 00:09:06;;;;;;;19.05;13.63;;;;;;;14.75;51.91;99655.75;5095074;28;20126;-83
2022/10/20 00:11:32;;;;;;;21.63;13.63;;;;;;;14.84;51.88;99669.66;5095719;28;20036;-84
2022/10/20 00:13:58;;;;;;;18.90;14.05;;;;;;;14.75;51.98;99658.56;5114210;28;20030;-84
2022/10/20 00:16:26;;;;;;;24.92;14.93;;;;;;;14.81;52.13;99670.38;5113925;28;20024;-83
2022/10/20 00:18:52;;;;;;;17.73;13.88;;;;;;;14.82;52.64;99678.47;5095640;28;20031;-83
2022/10/20 00:21:20;;;;;;;26.17;14.57;;;;;;;14.82;52.50;99657.94;5095801;28;20027;-83
2022/10/20 00:23:46;;;;;;;25.00;15.00;;;;;;;14.92;52.42;99671.50;5095528;28;20016;-83
2022/10/20 00:26:17;;;;;;;21.70;15.20;;;;;;;14.97;52.82;99661.97;5113362;28;20040;-83
2022/10/20 00:28:44;;;;;;;26.77;16.25;;;;;;;15.07;53.20;99657.81;5113589;28;20052;-84
2022/10/20 00:31:10;;;;;;;23.95;15.05;;;;;;;15.10;53.44;99654.28;5113776;28;20019;-84
2022/10/20 00:33:36;;;;;;;35.95;16.48;;;;;;;15.15;52.74;99626.66;5113720;28;20019;-83
2022/10/20 00:36:03;;;;;;;23.38;15.45;;;;;;;15.37;52.72;99654.56;5095318;28;20471;-84
2022/10/20 00:38:29;;;;;;;26.05;15.40;;;;;;;15.16;52.72;99633.09;5095251;28;20087;-84
2022/10/20 00:40:55;;;;;;;23.40;14.85;;;;;;;15.34;53.17;99642.03;5113563;28;20106;-84
2022/10/20 00:43:21;;;;;;;21.08;14.95;;;;;;;15.27;53.10;99642.66;5095103;28;20019;-84
2022/10/20 00:45:55;;;;;;;20.48;15.52;;;;;;;15.28;53.02;99651.94;5095205;28;20568;-84
2022/10/20 00:48:26;;;;;;;19.27;16.35;;;;;;;15.18;53.29;99638.38;5094964;28;20387;-84
2022/10/20 00:50:54;;;;;;;22.42;16.33;;;;;;;15.12;53.62;99637.84;5095149;28;20478;-84
2022/10/20 00:53:27;;;;;;;26.80;16.35;;;;;;;15.18;53.88;99644.81;5094935;28;20477;-84
2022/10/20 00:55:55;;;;;;;21.77;16.67;;;;;;;14.98;54.19;99639.09;5095062;28;20027;-84
2022/10/20 00:58:21;;;;;;;23.20;15.90;;;;;;;14.96;55.02;99641.47;5094776;28;20023;-84
2022/10/20 01:00:49;;;;;;;30.60;18.08;;;;;;;14.94;55.20;99628.91;5094929;28;20113;-84
2022/10/20 01:03:25;;;;;;;24.85;18.25;;;;;;;14.99;55.24;99643.53;5094646;28;20413;-83
2022/10/20 01:05:50;;;;;;;24.35;17.73;;;;;;;15.05;55.27;99643.28;5094654;28;20416;-84
2022/10/20 01:08:15;;;;;;;27.65;18.52;;;;;;;15.19;54.79;99656.94;5113001;28;20099;-84
2022/10/20 01:10:54;;;;;;;31.17;18.77;;;;;;;15.09;55.32;99658.28;5112966;28;20560;-83
2022/10/20 01:13:34;;;;;;;29.63;19.15;;;;;;;15.09;55.43;99666.75;5112822;28;20562;-83
2022/10/20 01:16:23;;;;;;;27.48;18.58;;;;;;;14.93;55.43;99650.59;5094612;28;20043;-83
2022/10/20 01:19:02;;;;;;;27.45;18.92;;;;;;;15.04;55.42;99650.91;5094379;28;20063;-83
2022/10/20 01:22:09;;;;;;;30.40;18.67;;;;;;;14.99;56.00;99654.81;5094517;28;20034;-83
2022/10/20 01:24:52;;;;;;;23.38;17.50;;;;;;;14.90;56.34;99656.97;5111940;28;20066;-83
2022/10/20 01:27:31;;;;;;;28.90;18.58;;;;;;;14.81;56.48;99664.75;5094105;28;20438;-83
2022/10/20 01:29:56;;;;;;;28.42;19.67;;;;;;;14.73;57.36;99653.31;5094420;28;20023;-83
2022/10/20 01:32:28;;;;;;;26.98;19.35;;;;;;;14.74;57.48;99659.75;5112529;28;20561;-83
2022/10/20 01:35:04;;;;;;;26.25;20.30;;;;;;;14.72;57.85;99662.09;5094248;28;20092;-83
2022/10/20 01:38:18;;;;;;;27.15;20.75;;;;;;;14.63;58.12;99655.75;5112357;28;20019;-84
2022/10/20 01:40:51;;;;;;;27.52;20.50;;;;;;;14.51;58.38;99668.72;5078247;28;20034;-83
2022/10/20 01:43:20;;;;;;;28.00;21.15;;;;;;;14.46;58.56;99666.97;5112327;28;20046;-84
2022/10/20 01:45:50;;;;;;;31.65;20.63;;;;;;;14.46;58.98;99666.16;5094030;28;20024;-84
2022/10/20 01:48:18;;;;;;;24.95;20.45;;;;;;;14.21;59.09;99640.06;5093988;28;20528;-83
2022/10/20 01:50:45;;;;;;;26.65;21.80;;;;;;;14.19;59.82;99674.22;5094314;28;20374;-84
2022/10/20 01:53:12;;;;;;;30.08;21.08;;;;;;;14.24;59.54;99670.28;5093903;28;20541;-84
2022/10/20 01:55:37;;;;;;;28.67;21.00;;;;;;;14.24;60.22;99688.00;5093881;28;20016;-84
2022/10/20 01:58:14;;;;;;;30.45;21.88;;;;;;;14.14;60.12;99680.06;5093825;28;20085;-83
2022/10/20 02:00:42;;;;;;;29.88;20.90;;;;;;;14.08;60.56;99682.28;5093935;28;20035;-83
2022/10/20 02:03:35;;;;;;;27.30;20.98;;;;;;;13.90;61.16;99692.97;5111818;28;20024;-84
2022/10/20 02:06:03;;;;;;;34.10;23.15;;;;;;;13.79;61.62;99695.44;5112105;28;20027;-83
2022/10/20 02:08:41;;;;;;;30.55;22.15;;;;;;;13.83;61.22;99695.56;5111888;28;20034;-83
2022/10/20 02:11:13;;;;;;;30.70;23.90;;;;;;;13.81;61.81;99701.53;5093629;28;20030;-83
2022/10/20 02:13:41;;;;;;;33.80;21.80;;;;;;;13.85;61.52;99690.41;5093371;28;20031;-84
2022/10/20 02:16:16;;;;;;;33.50;22.60;;;;;;;13.97;61.25;99692.38;5093554;28;20031;-83
2022/10/20 02:18:45;;;;;;;30.48;22.45;;;;;;;14.01;61.62;99711.00;5093289;28;20024;-84
2022/10/20 02:21:11;;;;;;;30.02;22.25;;;;;;;13.97;61.54;99712.06;5093486;28;20060;-84
2022/10/20 02:23:39;;;;;;;30.35;22.83;;;;;;;13.96;61.96;99716.06;5093287;28;20023;-83
2022/10/20 02:26:07;;;;;;;31.40;23.02;;;;;;;13.89;61.99;99706.22;5093306;28;20030;-83
2022/10/20 02:28:36;;;;;;;29.60;22.45;;;;;;;13.90;62.19;99704.22;5111507;28;20426;-83
2022/10/20 02:31:02;;;;;;;27.70;22.85;;;;;;;13.85;62.45;99696.03;5092832;28;20027;-83
2022/10/20 02:33:29;;;;;;;30.33;22.38;;;;;;;13.89;61.95;99689.34;5093133;28;20390;-84
2022/10/20 02:35:58;;;;;;;33.35;24.30;;;;;;;13.96;61.93;99716.88;5111601;28;20077;-83
2022/10/20 02:38:24;;;;;;;29.45;22.48;;;;;;;13.96;62.56;99716.06;5093203;28;20580;-84
2022/10/20 02:40:50;;;;;;;31.40;24.08;;;;;;;13.84;63.03;99708.44;5093165;28;20111;-84
2022/10/20 02:43:16;;;;;;;31.30;22.02;;;;;;;13.80;62.74;99708.31;5093126;28;20532;-84
2022/10/20 02:45:41;;;;;;;33.92;23.30;;;;;;;13.69;63.24;99712.78;5093095;28;20024;-83
2022/10/20 02:48:10;;;;;;;30.00;24.13;;;;;;;13.84;62.90;99722.50;5093234;28;20024;-83
2022/10/20 02:50:36;;;;;;;29.75;23.00;;;;;;;13.86;62.79;99717.34;5093066;28;20023;-84
2022/10/20 02:53:03;;;;;;;35.63;23.42;;;;;;;13.94;62.74;99722.03;5111370;28;20110;-84
2022/10/20 02:55:29;;;;;;;33.83;23.13;;;;;;;14.03;62.49;99745.22;5111311;28;20106;-84
2022/10/20 02:57:55;;;;;;;36.15;22.52;;;;;;;14.04;62.85;99732.00;5093147;28;20114;-83
2022/10/20 03:00:20;;;;;;;31.88;23.90;;;;;;;14.01;62.67;99725.06;5111243;28;20413;-84
2022/10/20 03:02:47;;;;;;;32.28;23.80;;;;;;;14.09;62.63;99730.94;5111331;28;20112;-83
2022/10/20 03:05:12;;;;;;;31.00;23.90;;;;;;;14.20;62.55;99736.88;5111117;28;20028;-84
2022/10/20 03:07:38;;;;;;;31.92;24.48;;;;;;;14.17;62.83;99727.16;5093019;28;20031;-84
2022/10/20 03:10:04;;;;;;;28.15;22.90;;;;;;;14.19;62.83;99736.09;5111186;28;20069;-84
2022/10/20 03:12:30;;;;;;;38.90;24.67;;;;;;;14.16;62.97;99726.34;5111126;28;20059;-84
2022/10/20 03:14:55;;;;;;;33.28;24.45;;;;;;;14.32;62.34;99750.94;5111098;28;20101;-82
2022/10/20 03:17:21;;;;;;;33.85;24.17;;;;;;;14.25;62.89;99745.09;5093005;28;20039;-83
2022/10/20 03:19:46;;;;;;;32.83;22.80;;;;;;;14.16;62.98;99731.97;5092867;28;20031;-83
2022/10/20 03:22:11;;;;;;;35.88;22.98;;;;;;;14.23;62.67;99755.88;5092935;28;20027;-83
2022/10/20 03:24:37;;;;;;;32.83;22.77;;;;;;;14.21;62.66;99752.59;5092782;28;20034;-84
2022/10/20 03:27:02;;;;;;;48.80;22.48;;;;;;;14.09;62.55;99737.38;5092469;28;20565;-83
2022/10/20 03:29:28;;;;;;;28.92;22.58;;;;;;;14.20;62.33;99765.84;5110988;28;20032;-83
2022/10/20 03:31:53;;;;;;;28.70;22.38;;;;;;;14.02;62.68;99748.41;5092887;28;20114;-83
2022/10/20 03:34:19;;;;;;;28.13;23.33;;;;;;;14.14;62.12;99773.72;5092643;28;20455;-84
2022/10/20 03:36:44;;;;;;;30.75;22.73;;;;;;;14.20;62.03;99779.09;5092883;28;20027;-83
2022/10/20 03:39:10;;;;;;;26.90;22.25;;;;;;;14.30;61.75;99770.19;5092619;28;20027;-83
2022/10/20 03:41:35;;;;;;;27.38;21.33;;;;;;;14.14;62.36;99770.06;5092997;28;20035;-83
2022/10/20 03:44:01;;;;;;;34.67;24.85;;;;;;;14.03;62.30;99778.97;5094663;28;20027;-83
2022/10/20 03:46:26;;;;;;;28.65;21.98;;;;;;;13.92;62.78;99783.41;5114618;28;20027;-84
2022/10/20 03:48:52;;;;;;;29.92;22.63;;;;;;;13.84;62.78;99784.34;5096489;28;20497;-83
2022/10/20 03:51:17;;;;;;;30.42;22.77;;;;;;;13.75;63.14;99784.44;5096160;28;20042;-83
2022/10/20 03:53:43;;;;;;;32.35;22.48;;;;;;;13.59;63.63;99779.50;5092564;28;20032;-83
2022/10/20 03:56:12;;;;;;;31.73;23.23;;;;;;;13.71;63.38;99789.97;5075890;28;20039;-83
2022/10/20 03:58:37;;;;;;;36.13;23.87;;;;;;;13.83;63.43;99791.97;5075884;28;20415;-84
2022/10/20 04:01:05;;;;;;;32.40;23.17;;;;;;;13.93;63.00;99793.47;5077690;28;20039;-83
2022/10/20 04:03:30;;;;;;;31.00;23.95;;;;;;;13.90;62.95;99786.59;5104515;28;20031;-84
2022/10/20 04:05:56;;;;;;;29.50;21.00;;;;;;;13.96;63.03;99794.78;5113830;28;20482;-83
2022/10/20 04:08:21;;;;;;;29.13;22.83;;;;;;;13.99;62.58;99788.44;5114976;28;20035;-90
2022/10/20 04:10:47;;;;;;;27.42;22.30;;;;;;;14.04;62.50;99793.88;5097226;28;20028;-90
2022/10/20 04:13:12;;;;;;;30.50;21.50;;;;;;;14.02;62.72;99787.78;5097331;28;20494;-91
2022/10/20 04:15:38;;;;;;;31.92;22.42;;;;;;;13.90;62.41;99780.97;5115492;28;20031;-90
2022/10/20 04:18:03;;;;;;;30.73;20.75;;;;;;;13.79;62.04;99779.78;5097424;28;20094;-91
2022/10/20 04:20:29;;;;;;;26.30;21.33;;;;;;;13.70;62.04;99765.84;5097876;28;20019;-91
2022/10/20 04:22:54;;;;;;;27.30;20.58;;;;;;;13.97;61.60;99793.63;5097643;28;20023;-91
2022/10/20 04:25:20;;;;;;;40.00;20.50;;;;;;;13.76;61.59;99775.66;5097369;28;20031;-91
2022/10/20 04:27:45;;;;;;;26.92;21.52;;;;;;;13.57;61.80;99756.56;5117768;28;20051;-91
2022/10/20 04:30:11;;;;;;;33.55;21.27;;;;;;;13.66;62.16;99786.56;5097347;28;20466;-90
2022/10/20 04:32:36;;;;;;;26.55;19.88;;;;;;;13.44;62.48;99775.34;5097736;28;20028;-91
2022/10/20 04:35:02;;;;;;;27.45;19.25;;;;;;;13.42;62.64;99782.50;5097831;28;20016;-90
2022/10/20 04:37:27;;;;;;;28.70;20.02;;;;;;;13.60;62.58;99811.25;5096617;28;20183;-91
2022/10/20 04:39:53;;;;;;;25.20;19.38;;;;;;;13.59;62.13;99821.66;5114638;28;20501;-90
2022/10/20 04:42:19;;;;;;;29.95;18.52;;;;;;;13.58;61.90;99802.34;5114968;28;20099;-91
2022/10/20 04:44:45;;;;;;;26.48;18.67;;;;;;;13.51;62.04;99818.94;5114678;28;20046;-89
2022/10/20 04:47:11;;;;;;;26.10;18.80;;;;;;;13.45;62.43;99838.00;5114377;28;20482;-89
2022/10/20 04:49:37;;;;;;;35.97;19.20;;;;;;;13.19;62.93;99831.44;5114018;28;20035;-90
2022/10/20 04:52:02;;;;;;;28.92;19.95;;;;;;;13.08;63.11;99840.63;5096135;28;20035;-91
2022/10/20 04:54:28;;;;;;;25.73;20.98;;;;;;;12.95;63.20;99817.25;5095672;28;20023;-90
2022/10/20 04:56:54;;;;;;;30.83;20.42;;;;;;;12.91;63.68;99823.56;5089332;28;20031;-90
2022/10/20 04:59:19;;;;;;;30.90;20.80;;;;;;;12.94;63.24;99822.06;5075667;28;20085;-88
2022/10/20 05:01:45;;;;;;;33.03;21.15;;;;;;;13.04;63.57;99830.09;5084421;28;20055;-90
2022/10/20 05:04:10;;;;;;;40.72;24.08;;;;;;;13.20;63.10;99857.53;5102778;28;20020;-90
2022/10/20 05:06:36;;;;;;;30.70;22.17;;;;;;;13.31;62.77;99861.56;5114022;28;20031;-90
2022/10/20 05:09:05;;;;;;;37.70;21.45;;;;;;;13.40;62.78;99869.13;5104874;28;20028;-90
2022/10/20 05:11:34;;;;;;;32.40;22.80;;;;;;;13.33;62.47;99852.78;5113784;28;20039;-90
2022/10/20 05:13:59;;;;;;;33.15;21.45;;;;;;;13.51;62.03;99869.53;5095728;28;20474;-90
2022/10/20 05:16:25;;;;;;;29.63;20.25;;;;;;;13.56;61.90;99880.53;5095601;28;20084;-89
2022/10/20 05:18:54;;;;;;;25.67;19.52;;;;;;;13.56;62.05;99888.97;5095221;28;20489;-89
2022/10/20 05:21:22;;;;;;;26.63;19.58;;;;;;;13.45;61.92;99857.69;5095582;28;20114;-90
2022/10/20 05:23:53;;;;;;;28.45;19.63;;;;;;;13.56;61.77;99878.56;5095139;28;20035;-90
2022/10/20 05:26:19;;;;;;;30.65;19.05;;;;;;;13.80;61.20;99887.41;5095313;28;20035;-90
2022/10/20 05:28:47;;;;;;;25.17;18.80;;;;;;;13.71;61.03;99893.13;5095413;28;20078;-90
2022/10/20 05:31:13;;;;;;;32.83;20.52;;;;;;;13.79;61.48;99900.66;5094912;28;20026;-90
2022/10/20 05:33:43;;;;;;;32.50;19.08;;;;;;;14.14;60.23;99919.97;5095338;28;20027;-90
2022/10/20 05:36:10;;;;;;;22.02;18.15;;;;;;;14.08;59.72;99890.41;5093938;28;20024;-90
2022/10/20 05:38:36;;;;;;;29.77;17.70;;;;;;;14.08;59.94;99921.34;5087937;28;20111;-90
2022/10/20 05:41:29;;;;;;;20.70;17.50;;;;;;;14.10;60.18;99927.44;5092802;28;20039;-90
2022/10/20 05:43:58;;;;;;;22.25;16.98;;;;;;;14.20;59.73;99936.63;5069131;28;20036;-91
2022/10/20 05:46:27;;;;;;;35.45;18.33;;;;;;;14.21;59.80;99939.09;5074651;28;20119;-90
2022/10/20 05:48:55;;;;;;;33.65;18.08;;;;;;;14.40;59.32;99946.16;5092785;28;20070;-90
2022/10/20 05:51:23;;;;;;;20.38;17.42;;;;;;;14.40;59.20;99960.22;5092263;28;20429;-90
2022/10/20 05:53:50;;;;;;;22.65;16.00;;;;;;;14.38;59.34;99960.59;5091510;28;20740;-90
2022/10/20 05:56:19;;;;;;;26.02;16.23;;;;;;;14.28;59.26;99941.34;5091377;28;20038;-90
2022/10/20 05:58:46;;;;;;;23.95;17.50;;;;;;;14.44;59.09;99964.81;5105582;28;20031;-91
2022/10/20 06:01:22;;;;;;;30.00;16.92;;;;;;;14.25;59.13;99931.59;5094784;28;20114;-91
2022/10/20 06:03:59;;;;;;;24.08;15.20;;;;;;;14.37;59.20;99950.50;5093792;28;20031;-90
2022/10/20 06:06:28;;;;;;;22.33;16.02;;;;;;;14.45;58.68;99960.00;5094192;28;20024;-90
2022/10/20 06:08:54;;;;;;;22.40;15.95;;;;;;;14.48;59.15;99983.78;5112992;28;20023;-90
2022/10/20 06:11:21;;;;;;;27.30;16.08;;;;;;;14.64;58.48;99979.16;5094690;28;20024;-90
2022/10/20 06:13:47;;;;;;;31.25;17.50;;;;;;;14.56;58.83;99985.69;5094852;28;20493;-91
2022/10/20 06:16:15;;;;;;;26.25;17.30;;;;;;;14.61;58.02;99974.22;5094779;28;20030;-90
2022/10/20 06:18:44;;;;;;;24.80;16.73;;;;;;;14.70;58.36;100000.25;5094604;28;20042;-91
2022/10/20 06:21:14;;;;;;;19.25;14.88;;;;;;;14.93;57.37;99993.41;5085957;28;20112;-91
2022/10/20 06:23:39;;;;;;;;;;;;;;;15.18;56.15;99994.19;5113319;28;20027;-90
2022/10/20 06:26:11;;;;;;;26.00;15.65;;;;;;;15.10;55.88;99995.16;5094538;28;19912;-91
2022/10/20 06:28:38;;;;;;;22.33;15.55;;;;;;;15.28;55.91;99996.53;5094218;28;20100;-91
2022/10/20 06:31:12;;;;;;;21.20;15.35;;;;;;;15.36;55.16;99999.59;5094656;28;20049;-91
2022/10/20 06:33:37;;;;;;;25.40;16.52;;;;;;;15.32;54.64;99984.53;5112881;28;20386;-91
2022/10/20 06:36:03;;;;;;;26.98;16.75;;;;;;;15.21;54.50;99962.50;5094425;28;20076;-91
2022/10/20 06:38:28;;;;;;;46.65;18.92;;;;;;;15.33;54.41;99992.66;5077480;28;20054;-91
2022/10/20 06:40:54;;;;;;;26.65;17.58;;;;;;;15.33;54.26;99963.66;5094503;28;20030;-91
2022/10/20 06:43:20;;;;;;;25.23;17.17;;;;;;;15.68;53.37;99996.91;5094519;28;20078;-91
2022/10/20 06:45:56;;;;;;;20.60;15.52;;;;;;;15.70;53.16;99997.41;5112527;28;20103;-92
2022/10/20 06:48:22;;;;;;;24.13;13.60;;;;;;;15.71;53.24;99988.56;5112529;28;20020;-91
2022/10/20 06:50:48;;;;;;;21.42;13.48;;;;;;;15.89;52.79;100010.00;5094764;28;20167;-91
2022/10/20 06:53:14;;;;;;;19.05;13.05;;;;;;;15.75;52.42;99983.03;5094139;28;20523;-91
2022/10/20 06:55:39;;;;;;;22.15;13.82;;;;;;;15.96;52.56;100001.78;5094227;28;20077;-91
2022/10/20 06:58:05;;;;;;;21.83;13.15;;;;;;;15.62;52.13;99972.97;5112261;28;20028;-90
2022/10/20 07:00:30;;;;;;;33.85;14.27;;;;;;;15.69;52.45;99979.63;5094242;28;20410;-91
2022/10/20 07:02:55;;;;;;;22.08;13.40;;;;;;;16.02;51.64;100003.16;5094289;28;20019;-91
2022/10/20 07:05:21;;;;;;;15.25;12.75;;;;;;;15.71;51.32;99965.19;5094195;28;20024;-90
2022/10/20 07:07:47;;;;;;;18.88;12.57;;;;;;;15.94;51.62;99992.88;5094556;28;20032;-91
2022/10/20 07:10:12;;;;;;;13.77;12.27;;;;;;;16.04;51.42;99997.16;5094369;28;20470;-91
2022/10/20 07:12:38;;;;;;;18.38;12.48;;;;;;;15.95;51.23;99960.66;5094128;28;20494;-89
2022/10/20 07:15:04;;;;;;;16.00;12.20;;;;;;;16.12;51.02;99990.56;5094582;28;20331;-91
2022/10/20 07:17:30;;;;;;;15.68;11.65;;;;;;;16.22;50.45;99984.38;5095497;28;20019;-92
2022/10/20 07:19:56;;;;;;;18.10;12.10;;;;;;;16.42;50.50;99971.22;5116266;28;20023;-91
2022/10/20 07:22:21;;;;;;;22.50;11.35;;;;;;;16.46;50.00;99981.78;5098046;28;20504;-92
2022/10/20 07:24:46;;;;;;;27.58;11.57;;;;;;;16.58;49.74;99980.88;5098062;28;20051;-91
2022/10/20 07:27:12;;;;;;;21.77;11.25;;;;;;;16.76;48.99;99979.31;5097847;28;20115;-91
2022/10/20 07:29:38;;;;;;;20.55;11.65;;;;;;;16.73;48.39;99956.63;5098097;28;20066;-91
2022/10/20 07:32:03;;;;;;;18.15;10.27;;;;;;;17.02;48.21;99977.16;5097961;28;20035;-91
2022/10/20 07:34:29;;;;;;;34.78;11.43;;;;;;;17.00;47.68;99976.69;5097833;28;20118;-93
2022/10/20 07:36:55;;;;;;;12.23;8.95;;;;;;;17.06;46.84;99975.22;5097868;28;20034;-92
2022/10/20 07:39:20;;;;;;;45.67;11.52;;;;;;;17.11;46.16;99977.75;5097793;28;20028;-92
2022/10/20 07:41:46;;;;;;;17.85;9.48;;;;;;;17.02;46.26;99963.84;5097832;28;20035;-91
2022/10/20 07:44:12;;;;;;;24.40;10.13;;;;;;;17.16;45.16;99974.66;5097713;28;20015;-92
2022/10/20 07:46:38;;;;;;;20.60;10.05;;;;;;;16.93;45.13;99929.28;5097694;28;20077;-92
2022/10/20 07:49:03;;;;;;;14.73;9.30;;;;;;;17.20;44.98;99977.59;5097630;28;20034;-92
2022/10/20 07:51:31;;;;;;;19.30;8.60;;;;;;;17.41;43.90;99980.06;5097885;28;20020;-92
2022/10/20 07:53:58;;;;;;;16.95;8.80;;;;;;;17.56;43.96;99974.75;5097490;28;20493;-91
2022/10/20 07:56:30;;;;;;;12.05;8.23;;;;;;;17.22;43.74;99953.41;5097683;28;20035;-91
2022/10/20 07:58:55;;;;;;;23.60;8.55;;;;;;;17.19;43.62;99951.31;5097393;28;20114;-92
2022/10/20 08:01:21;;;;;;;21.50;7.55;;;;;;;17.38;43.28;99987.28;5097626;28;20047;-91
2022/10/20 08:03:46;;;;;;;15.98;8.27;;;;;;;17.21;43.54;99965.91;5097416;28;20470;-92
2022/10/20 08:06:12;;;;;;;14.70;9.40;;;;;;;17.40;43.23;99973.59;5097409;28;20024;-92
2022/10/20 08:08:37;;;;;;;14.43;8.75;;;;;;;17.58;43.23;99992.16;5097277;28;20024;-93
2022/10/20 08:11:03;;;;;;;13.18;7.88;;;;;;;17.50;43.47;99992.00;5097408;28;20023;-92
2022/10/20 08:13:29;;;;;;;9.05;8.07;;;;;;;17.67;42.88;99992.75;5097206;28;20027;-92
2022/10/20 08:15:55;;;;;;;13.25;7.90;;;;;;;17.81;43.01;99987.41;5115289;28;20023;-92
2022/10/20 08:18:20;;;;;;;13.20;8.25;;;;;;;17.96;42.28;99976.38;5097038;28;20031;-92
2022/10/20 08:20:46;;;;;;;10.48;8.77;;;;;;;18.19;41.98;99996.28;5097022;28;20034;-92
2022/10/20 08:23:12;;;;;;;13.90;8.25;;;;;;;18.00;41.98;99974.44;5097141;28;20032;-92
2022/10/20 08:25:38;;;;;;;14.63;7.45;;;;;;;18.03;41.81;99967.22;5096922;28;20046;-92
2022/10/20 08:28:03;;;;;;;13.63;7.72;;;;;;;18.07;41.45;99959.66;5096605;28;20044;-91
2022/10/20 08:30:30;;;;;;;17.00;8.50;;;;;;;18.30;41.05;99987.97;5096157;28;20460;-92
2022/10/20 08:32:55;;;;;;;10.10;8.50;;;;;;;18.41;40.60;99978.88;5096823;28;20486;-92
2022/10/20 08:35:22;;;;;;;13.57;9.80;;;;;;;18.41;40.71;99978.88;5096699;28;20107;-92
2022/10/20 08:37:47;;;;;;;12.00;8.05;;;;;;;18.34;40.98;99966.25;5114906;28;20051;-92
2022/10/20 08:40:21;;;;;;;8.95;7.32;;;;;;;18.23;41.49;99976.53;5096903;28;20024;-92
2022/10/20 08:42:48;;;;;;;14.30;8.27;;;;;;;18.35;40.57;99970.72;5096933;28;20024;-92
2022/10/20 08:45:16;;;;;;;13.43;7.90;;;;;;;18.57;40.62;99984.44;5096491;28;20031;-92
2022/10/20 08:47:44;;;;;;;12.10;8.15;;;;;;;18.67;40.29;99984.59;5096858;28;20056;-92
2022/10/20 08:50:12;;;;;;;9.40;8.15;;;;;;;18.58;40.28;99961.41;5096439;28;20032;-93
2022/10/20 08:52:40;;;;;;;26.02;7.57;;;;;;;18.74;39.59;99968.94;5096587;28;20088;-92
2022/10/20 08:55:09;;;;;;;10.13;7.55;;;;;;;18.53;39.68;99964.53;5096294;28;20152;-92
2022/10/20 08:57:35;;;;;;;20.17;10.48;;;;;;;18.81;39.47;99974.72;5096381;28;20028;-92
2022/10/20 09:00:12;;;;;;;8.32;6.63;;;;;;;18.58;38.57;99957.75;5096124;28;20085;-92
2022/10/20 09:02:39;;;;;;;8.65;6.97;;;;;;;18.68;38.80;99965.59;5096170;28;20023;-91
2022/10/20 09:05:06;;;;;;;11.98;7.13;;;;;;;18.80;37.75;99959.75;5096024;28;20459;-92
2022/10/20 09:07:37;;;;;;;11.93;7.85;;;;;;;19.22;38.44;99966.50;5096249;28;20053;-92
2022/10/20 09:10:24;;;;;;;7.47;6.68;;;;;;;19.40;37.40;99976.47;5096089;28;20032;-92
2022/10/20 09:12:51;;;;;;;15.07;7.20;;;;;;;19.12;37.58;99955.81;5096084;28;20038;-92
2022/10/20 09:15:18;;;;;;;9.85;6.80;;;;;;;19.38;37.18;99968.34;5096142;28;20019;-92
2022/10/20 09:17:54;;;;;;;10.57;6.65;;;;;;;19.41;37.32;99944.06;5096182;28;20072;-93
2022/10/20 09:20:54;;;;;;;11.85;6.57;;;;;;;19.48;37.45;99976.19;5096403;28;20111;-92
2022/10/20 09:23:23;;;;;;;17.13;6.53;;;;;;;19.35;37.49;99975.56;5077751;28;20043;-92
2022/10/20 09:25:51;;;;;;;9.82;6.00;;;;;;;19.63;36.54;99973.53;5095612;28;20040;-92
2022/10/20 09:28:22;;;;;;;12.35;6.10;;;;;;;19.82;36.26;99983.09;5095674;28;20516;-93
2022/10/20 09:30:48;;;;;;;9.38;6.00;;;;;;;19.48;36.01;99949.81;5095616;28;20028;-92
2022/10/20 09:33:32;;;;;;;9.05;6.25;;;;;;;19.41;35.96;99964.72;5095642;28;20027;-92
2022/10/20 09:36:11;;;;;;;10.32;6.15;;;;;;;19.68;35.21;99959.03;5095518;28;20405;-92
2022/10/20 09:38:42;;;;;;;13.55;6.55;;;;;;;19.59;35.30;99972.66;5095485;28;20034;-92
2022/10/20 09:41:13;;;;;;;13.98;5.82;;;;;;;19.55;35.14;99944.25;5094365;28;20027;-92
2022/10/20 09:44:01;;;;;;;8.25;6.57;;;;;;;19.90;35.15;99954.41;5095400;28;20118;-92
2022/10/20 09:46:31;;;;;;;11.57;6.40;;;;;;;20.00;34.38;99964.28;5095343;28;20030;-92
2022/10/20 09:48:57;;;;;;;9.95;5.25;;;;;;;19.80;34.23;99942.94;5095494;28;20023;-91
2022/10/20 09:51:28;;;;;;;11.60;6.72;;;;;;;20.02;34.71;99952.56;5095218;28;20036;-92
2022/10/20 09:54:15;;;;;;;9.90;6.00;;;;;;;19.92;35.24;99952.03;5095321;28;20024;-92
2022/10/20 09:56:43;;;;;;;11.35;6.38;;;;;;;19.66;35.08;99955.72;5095205;28;20081;-92
2022/10/20 09:59:19;;;;;;;12.30;6.43;;;;;;;19.94;34.62;99945.97;5095189;28;20023;-92
2022/10/20 10:02:15;;;;;;;8.10;5.88;;;;;;;20.11;34.74;99963.59;5095163;28;20020;-92
2022/10/20 10:04:48;;;;;;;9.85;5.43;;;;;;;20.45;34.07;99961.53;5081655;28;20417;-92
2022/10/20 10:07:25;;;;;;;12.35;6.63;;;;;;;20.31;33.61;99962.19;5095035;28;20019;-93
2022/10/20 10:10:00;;;;;;;10.05;6.30;;;;;;;19.96;33.90;99957.75;5094977;28;20023;-92
2022/10/20 10:12:28;;;;;;;14.25;5.68;;;;;;;20.06;34.12;99956.25;5095110;28;20024;-91
2022/10/20 10:15:17;;;;;;;9.85;5.95;;;;;;;20.10;33.90;99939.25;5095016;28;20486;-91
2022/10/20 10:17:43;;;;;;;15.68;6.50;;;;;;;20.08;34.75;99953.81;5094838;28;20116;-92
2022/10/20 10:20:08;;;;;;;9.43;5.70;;;;;;;20.11;34.83;99955.91;5094800;28;20050;-91
2022/10/20 10:22:34;;;;;;;7.28;5.50;;;;;;;20.25;33.85;99948.75;5094818;28;20019;-92
2022/10/20 10:25:00;;;;;;;7.20;6.45;;;;;;;20.45;33.42;99937.97;5094587;28;20383;-93
2022/10/20 10:27:34;;;;;;;9.60;5.70;;;;;;;20.31;33.11;99950.84;5094570;28;20053;-92
2022/10/20 10:30:15;;;;;;;11.80;5.60;;;;;;;20.33;32.86;99947.59;5094665;28;20029;-92
2022/10/20 10:32:46;;;;;;;7.90;5.55;;;;;;;20.35;32.66;99939.53;5095140;28;20047;-92
2022/10/20 10:35:23;;;;;;;9.32;5.45;;;;;;;20.73;32.58;99937.41;5094463;28;20019;-92
2022/10/20 10:37:50;;;;;;;13.20;5.80;;;;;;;20.41;32.22;99932.25;5094757;28;20039;-92
2022/10/20 10:40:31;;;;;;;12.75;6.38;;;;;;;20.65;31.98;99935.72;5112619;28;20032;-92
2022/10/20 10:43:05;;;;;;;7.88;5.60;;;;;;;20.66;32.41;99931.66;5094634;28;20023;-92
2022/10/20 10:45:39;;;;;;;7.20;5.53;;;;;;;20.78;32.29;99930.56;5094451;28;20039;-92
2022/10/20 10:48:34;;;;;;;11.00;5.95;;;;;;;20.84;31.56;99931.84;5094732;28;20023;-92
2022/10/20 10:51:09;;;;;;;8.75;5.63;;;;;;;20.95;31.20;99922.56;5094485;28;20054;-91
2022/10/20 10:53:40;;;;;;;7.78;5.75;;;;;;;20.90;31.87;99929.44;5097886;28;20023;-92
2022/10/20 10:56:25;;;;;;;5.65;5.05;;;;;;;20.30;32.56;99928.50;5098781;28;20406;-91
2022/10/20 10:58:58;;;;;;;6.88;5.78;;;;;;;20.37;32.69;99919.22;5098604;28;20031;-91
2022/10/20 11:01:37;;;;;;;9.85;4.97;;;;;;;20.30;32.89;99903.75;5116410;28;20027;-91
2022/10/20 11:04:18;;;;;;;15.45;6.72;;;;;;;20.68;33.05;99912.19;5098775;28;20072;-92
2022/10/20 11:06:49;;;;;;;10.90;7.35;;;;;;;20.47;33.01;99913.66;5098083;28;20034;-92
2022/10/20 11:09:24;;;;;;;10.23;5.90;;;;;;;20.99;32.06;99912.03;5098690;28;20062;-92
2022/10/20 11:12:28;;;;;;;8.00;6.18;;;;;;;21.10;31.54;99900.75;5098404;28;20024;-92
2022/10/20 11:15:35;;;;;;;6.55;5.57;;;;;;;20.99;31.25;99886.44;5094675;28;20036;-92
2022/10/20 11:18:06;;;;;;;6.38;5.57;;;;;;;20.96;31.40;99905.13;5097925;28;20520;-92
2022/10/20 11:20:50;;;;;;;9.98;5.82;;;;;;;20.89;30.96;99900.22;5098108;28;20028;-92
2022/10/20 11:23:37;;;;;;;6.90;5.15;;;;;;;20.91;31.21;99891.28;5116290;28;20028;-93
2022/10/20 11:26:25;;;;;;;8.52;5.45;;;;;;;21.08;30.48;99881.22;5097786;28;20027;-94
2022/10/20 11:28:53;;;;;;;8.23;5.05;;;;;;;21.02;31.03;99888.50;5097727;28;20055;-91
2022/10/20 11:31:27;;;;;;;6.43;5.22;;;;;;;21.28;31.32;99880.94;5097930;28;20417;-92
2022/10/20 11:34:01;;;;;;;11.13;5.18;;;;;;;21.38;29.89;99887.88;5097736;28;20027;-91